sensor_id;sensor_type;location;lat;lon;timestamp;P1;durP1;ratioP1;P2;durP2;ratioP2
17306;SDS011;8771;48.048;7.682;2024-03-07T00:01:08;10.87;;;9.77;;
17306;SDS011;8771;48.048;7.682;2024-03-07T00:06:10;11.43;;;9.77;;
17306;SDS011;8771;48.048;7.682;2024-03-07T00:11:12;10.57;;;9.37;;
17306;SDS011;8771;48.048;7.682;2024-03-07T00:16:16;9.33;;;8.53;;
17306;SDS011;8771;48.048;7.682;2024-03-07T00:21:33;9.13;;;8.30;;
17306;SDS011;8771;48.048;7.682;2024-03-07T00:26:35;9.67;;;8.80;;
17306;SDS011;8771;48.048;7.682;2024-03-07T00:31:38;10.83;;;9.10;;
17306;SDS011;8771;48.048;7.682;2024-03-07T00:36:41;8.67;;;7.87;;
17306;SDS011;8771;48.048;7.682;2024-03-07T00:41:43;8.93;;;8.03;;
17306;SDS011;8771;48.048;7.682;2024-03-07T00:46:46;9.17;;;8.37;;
17306;SDS011;8771;48.048;7.682;2024-03-07T00:52:06;9.67;;;8.70;;
17306;SDS011;8771;48.048;7.682;2024-03-07T00:57:09;9.20;;;8.40;;
17306;SDS011;8771;48.048;7.682;2024-03-07T01:02:14;9.07;;;8.23;;
17306;SDS011;8771;48.048;7.682;2024-03-07T01:07:17;9.00;;;8.23;;
17306;SDS011;8771;48.048;7.682;2024-03-07T01:12:20;8.20;;;7.43;;
17306;SDS011;8771;48.048;7.682;2024-03-07T01:17:26;10.03;;;9.03;;
17306;SDS011;8771;48.048;7.682;2024-03-07T01:22:29;9.40;;;8.50;;
17306;SDS011;8771;48.048;7.682;2024-03-07T01:27:32;9.70;;;8.80;;
17306;SDS011;8771;48.048;7.682;2024-03-07T01:32:36;8.20;;;7.40;;
17306;SDS011;8771;48.048;7.682;2024-03-07T01:37:39;7.53;;;6.83;;
17306;SDS011;8771;48.048;7.682;2024-03-07T01:42:42;7.63;;;6.93;;
17306;SDS011;8771;48.048;7.682;2024-03-07T01:47:46;8.00;;;6.87;;
17306;SDS011;8771;48.048;7.682;2024-03-07T01:52:49;7.30;;;6.60;;
17306;SDS011;8771;48.048;7.682;2024-03-07T01:57:56;7.17;;;6.57;;
17306;SDS011;8771;48.048;7.682;2024-03-07T02:03:03;7.77;;;6.43;;
17306;SDS011;8771;48.048;7.682;2024-03-07T02:08:08;6.90;;;6.20;;
17306;SDS011;8771;48.048;7.682;2024-03-07T02:13:11;6.43;;;5.70;;
17306;SDS011;8771;48.048;7.682;2024-03-07T02:18:15;5.93;;;5.43;;
17306;SDS011;8771;48.048;7.682;2024-03-07T02:23:20;6.60;;;5.90;;
17306;SDS011;8771;48.048;7.682;2024-03-07T02:28:22;7.27;;;6.67;;
17306;SDS011;8771;48.048;7.682;2024-03-07T02:33:25;9.67;;;8.00;;
17306;SDS011;8771;48.048;7.682;2024-03-07T02:38:29;9.73;;;8.27;;
17306;SDS011;8771;48.048;7.682;2024-03-07T02:43:32;10.40;;;9.03;;
17306;SDS011;8771;48.048;7.682;2024-03-07T02:48:39;14.03;;;11.90;;
17306;SDS011;8771;48.048;7.682;2024-03-07T02:53:44;14.20;;;11.63;;
17306;SDS011;8771;48.048;7.682;2024-03-07T02:58:46;14.43;;;12.23;;
17306;SDS011;8771;48.048;7.682;2024-03-07T03:03:49;17.73;;;14.27;;
17306;SDS011;8771;48.048;7.682;2024-03-07T03:08:52;16.23;;;12.07;;
17306;SDS011;8771;48.048;7.682;2024-03-07T03:13:55;16.60;;;12.63;;
17306;SDS011;8771;48.048;7.682;2024-03-07T03:18:57;15.40;;;12.07;;
17306;SDS011;8771;48.048;7.682;2024-03-07T03:24:15;15.57;;;12.73;;
17306;SDS011;8771;48.048;7.682;2024-03-07T03:29:32;15.97;;;13.20;;
17306;SDS011;8771;48.048;7.682;2024-03-07T03:34:35;19.00;;;14.13;;
17306;SDS011;8771;48.048;7.682;2024-03-07T03:39:39;17.80;;;14.13;;
17306;SDS011;8771;48.048;7.682;2024-03-07T03:44:44;18.13;;;14.63;;
17306;SDS011;8771;48.048;7.682;2024-03-07T03:49:46;16.10;;;13.70;;
17306;SDS011;8771;48.048;7.682;2024-03-07T03:54:51;17.13;;;13.27;;
17306;SDS011;8771;48.048;7.682;2024-03-07T03:59:54;15.67;;;12.93;;
17306;SDS011;8771;48.048;7.682;2024-03-07T04:04:57;15.00;;;12.30;;
17306;SDS011;8771;48.048;7.682;2024-03-07T04:10:01;15.93;;;12.97;;
17306;SDS011;8771;48.048;7.682;2024-03-07T04:15:05;17.27;;;13.57;;
17306;SDS011;8771;48.048;7.682;2024-03-07T04:20:08;16.80;;;13.60;;
17306;SDS011;8771;48.048;7.682;2024-03-07T04:25:27;18.00;;;13.40;;
17306;SDS011;8771;48.048;7.682;2024-03-07T04:30:29;16.23;;;12.77;;
17306;SDS011;8771;48.048;7.682;2024-03-07T04:35:32;19.80;;;15.20;;
17306;SDS011;8771;48.048;7.682;2024-03-07T04:40:36;20.73;;;15.70;;
17306;SDS011;8771;48.048;7.682;2024-03-07T04:45:40;20.37;;;15.77;;
17306;SDS011;8771;48.048;7.682;2024-03-07T04:50:42;19.43;;;14.97;;
17306;SDS011;8771;48.048;7.682;2024-03-07T04:55:46;18.73;;;14.40;;
17306;SDS011;8771;48.048;7.682;2024-03-07T05:00:49;21.37;;;16.13;;
17306;SDS011;8771;48.048;7.682;2024-03-07T05:05:52;21.63;;;15.67;;
17306;SDS011;8771;48.048;7.682;2024-03-07T05:10:56;21.27;;;16.17;;
17306;SDS011;8771;48.048;7.682;2024-03-07T05:15:59;20.80;;;16.33;;
17306;SDS011;8771;48.048;7.682;2024-03-07T05:21:02;21.20;;;15.90;;
17306;SDS011;8771;48.048;7.682;2024-03-07T05:26:26;20.10;;;15.60;;
17306;SDS011;8771;48.048;7.682;2024-03-07T05:31:28;20.90;;;16.13;;
17306;SDS011;8771;48.048;7.682;2024-03-07T05:36:31;22.33;;;16.23;;
17306;SDS011;8771;48.048;7.682;2024-03-07T05:41:35;18.90;;;15.37;;
17306;SDS011;8771;48.048;7.682;2024-03-07T05:46:37;21.27;;;15.87;;
17306;SDS011;8771;48.048;7.682;2024-03-07T05:51:41;18.57;;;14.77;;
17306;SDS011;8771;48.048;7.682;2024-03-07T05:57:01;22.27;;;15.10;;
17306;SDS011;8771;48.048;7.682;2024-03-07T06:02:18;22.30;;;16.27;;
17306;SDS011;8771;48.048;7.682;2024-03-07T06:07:20;22.90;;;16.57;;
17306;SDS011;8771;48.048;7.682;2024-03-07T06:12:23;20.27;;;16.20;;
17306;SDS011;8771;48.048;7.682;2024-03-07T06:17:40;23.63;;;16.40;;
17306;SDS011;8771;48.048;7.682;2024-03-07T06:22:46;19.87;;;15.17;;
17306;SDS011;8771;48.048;7.682;2024-03-07T06:27:49;18.03;;;14.67;;
17306;SDS011;8771;48.048;7.682;2024-03-07T06:33:07;17.37;;;13.90;;
17306;SDS011;8771;48.048;7.682;2024-03-07T06:38:24;16.73;;;13.77;;
17306;SDS011;8771;48.048;7.682;2024-03-07T06:43:44;24.97;;;18.47;;
17306;SDS011;8771;48.048;7.682;2024-03-07T06:49:01;29.77;;;21.90;;
17306;SDS011;8771;48.048;7.682;2024-03-07T06:54:08;30.23;;;21.43;;
17306;SDS011;8771;48.048;7.682;2024-03-07T06:59:15;25.37;;;19.87;;
17306;SDS011;8771;48.048;7.682;2024-03-07T07:04:19;23.60;;;18.53;;
17306;SDS011;8771;48.048;7.682;2024-03-07T07:09:21;24.87;;;18.87;;
17306;SDS011;8771;48.048;7.682;2024-03-07T07:14:24;22.27;;;18.27;;
17306;SDS011;8771;48.048;7.682;2024-03-07T07:19:29;22.90;;;17.80;;
17306;SDS011;8771;48.048;7.682;2024-03-07T07:24:33;22.00;;;17.47;;
17306;SDS011;8771;48.048;7.682;2024-03-07T07:29:37;22.73;;;18.47;;
17306;SDS011;8771;48.048;7.682;2024-03-07T07:34:40;21.37;;;17.37;;
17306;SDS011;8771;48.048;7.682;2024-03-07T07:39:44;26.33;;;22.80;;
17306;SDS011;8771;48.048;7.682;2024-03-07T07:44:48;25.60;;;19.73;;
17306;SDS011;8771;48.048;7.682;2024-03-07T07:49:51;27.70;;;20.77;;
17306;SDS011;8771;48.048;7.682;2024-03-07T07:54:53;26.03;;;20.83;;
17306;SDS011;8771;48.048;7.682;2024-03-07T07:59:56;24.10;;;20.17;;
17306;SDS011;8771;48.048;7.682;2024-03-07T08:05:13;25.73;;;19.87;;
17306;SDS011;8771;48.048;7.682;2024-03-07T08:10:18;24.53;;;20.93;;
17306;SDS011;8771;48.048;7.682;2024-03-07T08:15:22;27.13;;;20.80;;
17306;SDS011;8771;48.048;7.682;2024-03-07T08:20:41;26.83;;;21.40;;
17306;SDS011;8771;48.048;7.682;2024-03-07T08:25:45;24.33;;;20.90;;
17306;SDS011;8771;48.048;7.682;2024-03-07T08:30:49;26.47;;;21.37;;
17306;SDS011;8771;48.048;7.682;2024-03-07T08:35:51;26.83;;;21.60;;
17306;SDS011;8771;48.048;7.682;2024-03-07T08:40:55;28.23;;;21.97;;
17306;SDS011;8771;48.048;7.682;2024-03-07T08:45:59;27.93;;;22.80;;
17306;SDS011;8771;48.048;7.682;2024-03-07T08:51:02;27.27;;;22.43;;
17306;SDS011;8771;48.048;7.682;2024-03-07T08:56:05;29.80;;;22.73;;
17306;SDS011;8771;48.048;7.682;2024-03-07T09:01:12;35.03;;;25.20;;
17306;SDS011;8771;48.048;7.682;2024-03-07T09:06:15;32.53;;;25.40;;
17306;SDS011;8771;48.048;7.682;2024-03-07T09:11:18;28.87;;;22.30;;
17306;SDS011;8771;48.048;7.682;2024-03-07T09:16:22;29.70;;;22.87;;
17306;SDS011;8771;48.048;7.682;2024-03-07T09:21:39;28.67;;;23.60;;
17306;SDS011;8771;48.048;7.682;2024-03-07T09:26:59;26.63;;;21.23;;
17306;SDS011;8771;48.048;7.682;2024-03-07T09:32:04;29.00;;;22.93;;
17306;SDS011;8771;48.048;7.682;2024-03-07T09:37:11;23.57;;;19.53;;
17306;SDS011;8771;48.048;7.682;2024-03-07T09:42:13;24.00;;;19.07;;
17306;SDS011;8771;48.048;7.682;2024-03-07T09:47:20;23.10;;;19.43;;
17306;SDS011;8771;48.048;7.682;2024-03-07T09:52:22;24.03;;;19.60;;
17306;SDS011;8771;48.048;7.682;2024-03-07T09:57:25;25.30;;;21.10;;
17306;SDS011;8771;48.048;7.682;2024-03-07T10:02:29;27.57;;;20.70;;
17306;SDS011;8771;48.048;7.682;2024-03-07T10:07:36;25.07;;;21.00;;
17306;SDS011;8771;48.048;7.682;2024-03-07T10:12:53;24.97;;;20.30;;
17306;SDS011;8771;48.048;7.682;2024-03-07T10:18:13;25.73;;;21.37;;
17306;SDS011;8771;48.048;7.682;2024-03-07T10:23:19;25.03;;;21.03;;
17306;SDS011;8771;48.048;7.682;2024-03-07T10:28:37;28.03;;;21.87;;
17306;SDS011;8771;48.048;7.682;2024-03-07T10:33:58;25.93;;;21.30;;
17306;SDS011;8771;48.048;7.682;2024-03-07T10:39:17;27.27;;;21.23;;
17306;SDS011;8771;48.048;7.682;2024-03-07T10:44:24;24.33;;;20.73;;
17306;SDS011;8771;48.048;7.682;2024-03-07T10:49:48;26.00;;;20.63;;
17306;SDS011;8771;48.048;7.682;2024-03-07T10:55:05;24.63;;;21.00;;
17306;SDS011;8771;48.048;7.682;2024-03-07T11:00:14;24.23;;;20.57;;
17306;SDS011;8771;48.048;7.682;2024-03-07T11:05:31;27.80;;;22.07;;
17306;SDS011;8771;48.048;7.682;2024-03-07T11:10:35;28.43;;;22.90;;
17306;SDS011;8771;48.048;7.682;2024-03-07T11:15:39;25.17;;;21.80;;
17306;SDS011;8771;48.048;7.682;2024-03-07T11:20:51;26.00;;;21.97;;
17306;SDS011;8771;48.048;7.682;2024-03-07T11:25:55;24.47;;;21.10;;
17306;SDS011;8771;48.048;7.682;2024-03-07T11:31:12;27.03;;;21.13;;
17306;SDS011;8771;48.048;7.682;2024-03-07T11:36:41;28.40;;;21.17;;
17306;SDS011;8771;48.048;7.682;2024-03-07T11:41:46;23.40;;;20.77;;
17306;SDS011;8771;48.048;7.682;2024-03-07T11:46:50;24.47;;;20.57;;
17306;SDS011;8771;48.048;7.682;2024-03-07T11:51:53;25.77;;;20.70;;
17306;SDS011;8771;48.048;7.682;2024-03-07T11:56:56;26.47;;;20.97;;
17306;SDS011;8771;48.048;7.682;2024-03-07T12:01:59;24.03;;;19.77;;
17306;SDS011;8771;48.048;7.682;2024-03-07T12:07:05;23.73;;;20.30;;
17306;SDS011;8771;48.048;7.682;2024-03-07T12:12:11;23.97;;;19.53;;
17306;SDS011;8771;48.048;7.682;2024-03-07T12:17:14;23.23;;;19.30;;
17306;SDS011;8771;48.048;7.682;2024-03-07T12:22:19;24.17;;;20.13;;
17306;SDS011;8771;48.048;7.682;2024-03-07T12:27:23;24.47;;;18.93;;
17306;SDS011;8771;48.048;7.682;2024-03-07T12:32:26;23.63;;;18.60;;
17306;SDS011;8771;48.048;7.682;2024-03-07T12:37:29;24.70;;;18.07;;
17306;SDS011;8771;48.048;7.682;2024-03-07T12:42:36;22.07;;;18.37;;
17306;SDS011;8771;48.048;7.682;2024-03-07T12:47:38;22.47;;;17.93;;
17306;SDS011;8771;48.048;7.682;2024-03-07T12:52:43;19.43;;;16.70;;
17306;SDS011;8771;48.048;7.682;2024-03-07T12:57:45;19.97;;;16.37;;
17306;SDS011;8771;48.048;7.682;2024-03-07T13:02:48;20.17;;;16.17;;
17306;SDS011;8771;48.048;7.682;2024-03-07T13:07:52;21.80;;;16.33;;
17306;SDS011;8771;48.048;7.682;2024-03-07T13:12:54;20.10;;;16.13;;
17306;SDS011;8771;48.048;7.682;2024-03-07T13:17:57;19.63;;;16.27;;
17306;SDS011;8771;48.048;7.682;2024-03-07T13:23:02;20.97;;;15.77;;
17306;SDS011;8771;48.048;7.682;2024-03-07T13:28:07;18.13;;;15.70;;
17306;SDS011;8771;48.048;7.682;2024-03-07T13:33:14;19.27;;;14.70;;
17306;SDS011;8771;48.048;7.682;2024-03-07T13:38:19;20.47;;;17.03;;
17306;SDS011;8771;48.048;7.682;2024-03-07T13:43:22;22.60;;;16.83;;
17306;SDS011;8771;48.048;7.682;2024-03-07T13:48:25;18.87;;;15.43;;
17306;SDS011;8771;48.048;7.682;2024-03-07T13:53:30;17.53;;;14.90;;
17306;SDS011;8771;48.048;7.682;2024-03-07T13:58:36;24.50;;;15.00;;
17306;SDS011;8771;48.048;7.682;2024-03-07T14:09:41;17.63;;;15.03;;
17306;SDS011;8771;48.048;7.682;2024-03-07T14:20:47;18.70;;;15.17;;
17306;SDS011;8771;48.048;7.682;2024-03-07T14:31:54;20.03;;;15.27;;
17306;SDS011;8771;48.048;7.682;2024-03-07T14:36:59;20.13;;;16.83;;
17306;SDS011;8771;48.048;7.682;2024-03-07T14:42:13;17.67;;;15.40;;
17306;SDS011;8771;48.048;7.682;2024-03-07T14:47:18;21.93;;;16.77;;
17306;SDS011;8771;48.048;7.682;2024-03-07T14:52:21;21.33;;;17.30;;
17306;SDS011;8771;48.048;7.682;2024-03-07T14:57:26;18.87;;;16.30;;
17306;SDS011;8771;48.048;7.682;2024-03-07T15:02:29;19.27;;;16.10;;
17306;SDS011;8771;48.048;7.682;2024-03-07T15:07:31;19.17;;;14.57;;
17306;SDS011;8771;48.048;7.682;2024-03-07T15:12:35;17.47;;;15.47;;
17306;SDS011;8771;48.048;7.682;2024-03-07T15:17:38;20.70;;;15.63;;
17306;SDS011;8771;48.048;7.682;2024-03-07T15:22:42;19.97;;;15.40;;
17306;SDS011;8771;48.048;7.682;2024-03-07T15:27:48;19.13;;;15.57;;
17306;SDS011;8771;48.048;7.682;2024-03-07T15:32:53;17.60;;;14.50;;
17306;SDS011;8771;48.048;7.682;2024-03-07T15:37:56;18.30;;;13.93;;
17306;SDS011;8771;48.048;7.682;2024-03-07T15:42:59;16.93;;;13.90;;
17306;SDS011;8771;48.048;7.682;2024-03-07T15:48:03;19.33;;;14.00;;
17306;SDS011;8771;48.048;7.682;2024-03-07T15:53:10;19.43;;;15.53;;
17306;SDS011;8771;48.048;7.682;2024-03-07T15:58:30;18.63;;;13.77;;
17306;SDS011;8771;48.048;7.682;2024-03-07T16:03:31;19.97;;;14.87;;
17306;SDS011;8771;48.048;7.682;2024-03-07T16:08:33;21.03;;;14.60;;
17306;SDS011;8771;48.048;7.682;2024-03-07T16:13:36;40.17;;;36.27;;
17306;SDS011;8771;48.048;7.682;2024-03-07T16:18:38;21.83;;;16.43;;
17306;SDS011;8771;48.048;7.682;2024-03-07T16:23:43;17.37;;;14.77;;
17306;SDS011;8771;48.048;7.682;2024-03-07T16:28:47;16.97;;;13.67;;
17306;SDS011;8771;48.048;7.682;2024-03-07T16:33:50;23.40;;;16.20;;
17306;SDS011;8771;48.048;7.682;2024-03-07T16:38:53;18.70;;;15.73;;
17306;SDS011;8771;48.048;7.682;2024-03-07T16:43:57;18.57;;;14.93;;
17306;SDS011;8771;48.048;7.682;2024-03-07T16:49:03;19.47;;;14.70;;
17306;SDS011;8771;48.048;7.682;2024-03-07T16:54:09;17.23;;;13.63;;
17306;SDS011;8771;48.048;7.682;2024-03-07T16:59:12;17.20;;;15.30;;
17306;SDS011;8771;48.048;7.682;2024-03-07T17:04:14;22.30;;;16.27;;
17306;SDS011;8771;48.048;7.682;2024-03-07T17:09:16;27.37;;;21.17;;
17306;SDS011;8771;48.048;7.682;2024-03-07T17:14:21;25.97;;;21.60;;
17306;SDS011;8771;48.048;7.682;2024-03-07T17:19:23;26.63;;;21.67;;
17306;SDS011;8771;48.048;7.682;2024-03-07T17:24:25;24.30;;;20.33;;
17306;SDS011;8771;48.048;7.682;2024-03-07T17:29:47;72.27;;;41.40;;
17306;SDS011;8771;48.048;7.682;2024-03-07T17:34:49;12.83;;;10.67;;
17306;SDS011;8771;48.048;7.682;2024-03-07T17:39:51;20.27;;;15.53;;
17306;SDS011;8771;48.048;7.682;2024-03-07T17:44:58;13.97;;;12.33;;
17306;SDS011;8771;48.048;7.682;2024-03-07T17:50:00;10.93;;;9.07;;
17306;SDS011;8771;48.048;7.682;2024-03-07T17:55:04;10.93;;;9.37;;
17306;SDS011;8771;48.048;7.682;2024-03-07T18:00:10;11.10;;;9.50;;
17306;SDS011;8771;48.048;7.682;2024-03-07T18:05:16;10.77;;;8.87;;
17306;SDS011;8771;48.048;7.682;2024-03-07T18:10:37;13.63;;;9.00;;
17306;SDS011;8771;48.048;7.682;2024-03-07T18:15:41;12.57;;;9.00;;
17306;SDS011;8771;48.048;7.682;2024-03-07T18:20:43;10.23;;;8.40;;
17306;SDS011;8771;48.048;7.682;2024-03-07T18:25:45;11.43;;;8.57;;
17306;SDS011;8771;48.048;7.682;2024-03-07T18:31:04;11.63;;;10.07;;
17306;SDS011;8771;48.048;7.682;2024-03-07T18:36:15;14.33;;;10.23;;
17306;SDS011;8771;48.048;7.682;2024-03-07T18:41:22;14.10;;;10.83;;
17306;SDS011;8771;48.048;7.682;2024-03-07T18:46:26;13.13;;;10.50;;
17306;SDS011;8771;48.048;7.682;2024-03-07T18:51:32;15.13;;;10.37;;
17306;SDS011;8771;48.048;7.682;2024-03-07T18:56:39;17.93;;;12.40;;
17306;SDS011;8771;48.048;7.682;2024-03-07T19:01:43;17.33;;;13.20;;
17306;SDS011;8771;48.048;7.682;2024-03-07T19:06:46;14.90;;;11.87;;
17306;SDS011;8771;48.048;7.682;2024-03-07T19:11:49;15.67;;;11.70;;
17306;SDS011;8771;48.048;7.682;2024-03-07T19:17:08;14.40;;;11.27;;
17306;SDS011;8771;48.048;7.682;2024-03-07T19:22:11;16.80;;;12.50;;
17306;SDS011;8771;48.048;7.682;2024-03-07T19:27:14;15.50;;;11.70;;
17306;SDS011;8771;48.048;7.682;2024-03-07T19:32:17;15.53;;;11.80;;
17306;SDS011;8771;48.048;7.682;2024-03-07T19:37:22;15.07;;;12.00;;
17306;SDS011;8771;48.048;7.682;2024-03-07T19:42:24;16.07;;;12.17;;
17306;SDS011;8771;48.048;7.682;2024-03-07T19:47:27;17.20;;;13.27;;
17306;SDS011;8771;48.048;7.682;2024-03-07T19:52:31;15.70;;;12.23;;
17306;SDS011;8771;48.048;7.682;2024-03-07T19:57:33;16.53;;;12.33;;
17306;SDS011;8771;48.048;7.682;2024-03-07T20:02:38;19.83;;;13.00;;
17306;SDS011;8771;48.048;7.682;2024-03-07T20:07:41;17.27;;;13.13;;
17306;SDS011;8771;48.048;7.682;2024-03-07T20:12:45;19.67;;;14.00;;
17306;SDS011;8771;48.048;7.682;2024-03-07T20:17:50;18.07;;;13.60;;
17306;SDS011;8771;48.048;7.682;2024-03-07T20:22:52;18.67;;;13.53;;
17306;SDS011;8771;48.048;7.682;2024-03-07T20:27:54;18.50;;;13.70;;
17306;SDS011;8771;48.048;7.682;2024-03-07T20:32:59;18.30;;;13.63;;
17306;SDS011;8771;48.048;7.682;2024-03-07T20:38:02;21.87;;;14.80;;
17306;SDS011;8771;48.048;7.682;2024-03-07T20:43:05;26.00;;;15.87;;
17306;SDS011;8771;48.048;7.682;2024-03-07T20:48:09;27.87;;;16.40;;
17306;SDS011;8771;48.048;7.682;2024-03-07T20:53:27;21.57;;;14.40;;
17306;SDS011;8771;48.048;7.682;2024-03-07T20:58:45;19.20;;;14.10;;
17306;SDS011;8771;48.048;7.682;2024-03-07T21:04:04;17.77;;;12.53;;
17306;SDS011;8771;48.048;7.682;2024-03-07T21:09:07;20.67;;;12.63;;
17306;SDS011;8771;48.048;7.682;2024-03-07T21:14:10;18.47;;;12.53;;
17306;SDS011;8771;48.048;7.682;2024-03-07T21:19:16;17.70;;;13.57;;
17306;SDS011;8771;48.048;7.682;2024-03-07T21:24:19;20.57;;;13.20;;
17306;SDS011;8771;48.048;7.682;2024-03-07T21:29:22;18.60;;;13.10;;
17306;SDS011;8771;48.048;7.682;2024-03-07T21:34:26;18.77;;;13.20;;
17306;SDS011;8771;48.048;7.682;2024-03-07T21:39:29;18.20;;;13.30;;
17306;SDS011;8771;48.048;7.682;2024-03-07T21:44:33;20.10;;;13.97;;
17306;SDS011;8771;48.048;7.682;2024-03-07T21:49:40;18.47;;;13.57;;
17306;SDS011;8771;48.048;7.682;2024-03-07T21:54:43;21.00;;;13.17;;
17306;SDS011;8771;48.048;7.682;2024-03-07T21:59:47;19.17;;;13.40;;
17306;SDS011;8771;48.048;7.682;2024-03-07T22:04:51;19.47;;;12.43;;
17306;SDS011;8771;48.048;7.682;2024-03-07T22:09:54;17.93;;;13.20;;
17306;SDS011;8771;48.048;7.682;2024-03-07T22:14:59;22.33;;;14.50;;
17306;SDS011;8771;48.048;7.682;2024-03-07T22:20:02;18.07;;;13.40;;
17306;SDS011;8771;48.048;7.682;2024-03-07T22:25:21;22.93;;;16.53;;
17306;SDS011;8771;48.048;7.682;2024-03-07T22:30:25;23.33;;;16.67;;
17306;SDS011;8771;48.048;7.682;2024-03-07T22:35:31;21.30;;;15.10;;
17306;SDS011;8771;48.048;7.682;2024-03-07T22:40:34;17.33;;;12.00;;
17306;SDS011;8771;48.048;7.682;2024-03-07T22:45:37;18.33;;;13.07;;
17306;SDS011;8771;48.048;7.682;2024-03-07T22:50:41;19.73;;;13.93;;
17306;SDS011;8771;48.048;7.682;2024-03-07T22:55:42;20.83;;;14.00;;
17306;SDS011;8771;48.048;7.682;2024-03-07T23:00:46;20.27;;;12.80;;
17306;SDS011;8771;48.048;7.682;2024-03-07T23:05:52;19.10;;;12.17;;
17306;SDS011;8771;48.048;7.682;2024-03-07T23:10:57;18.07;;;12.53;;
17306;SDS011;8771;48.048;7.682;2024-03-07T23:16:00;19.03;;;12.33;;
17306;SDS011;8771;48.048;7.682;2024-03-07T23:21:18;17.60;;;12.70;;
17306;SDS011;8771;48.048;7.682;2024-03-07T23:26:20;15.70;;;11.03;;
17306;SDS011;8771;48.048;7.682;2024-03-07T23:31:23;18.50;;;11.37;;
17306;SDS011;8771;48.048;7.682;2024-03-07T23:36:42;18.37;;;12.10;;
17306;SDS011;8771;48.048;7.682;2024-03-07T23:41:45;16.97;;;11.50;;
17306;SDS011;8771;48.048;7.682;2024-03-07T23:46:48;18.67;;;12.73;;
17306;SDS011;8771;48.048;7.682;2024-03-07T23:51:52;16.87;;;12.30;;
17306;SDS011;8771;48.048;7.682;2024-03-07T23:56:56;18.40;;;12.20;;
